• vieta
  • image
  • image
  • image
mod_vvisit_countermod_vvisit_countermod_vvisit_countermod_vvisit_countermod_vvisit_countermod_vvisit_countermod_vvisit_counter
mod_vvisit_counterŠiandien376
mod_vvisit_counterVakar874
mod_vvisit_counterŠią savaitę5042
mod_vvisit_counterPraėjusią savaitę5522
mod_vvisit_counterŠį mėnesį15527
mod_vvisit_counterPraėjusį mėnesį23031
mod_vvisit_counterViso1001484

Mes turime: 14 svečius online
Jūsų IP: 54.92.160.119
 , 
Šiandien: Spa 21, 2018
Oro uostas / Naujienos / 2012 Gegužė

2012 Gegužė

Šiaulių oro uoste 2012 m. gegužės mėn. 7 d. nusileido oro linijų bendrovės „MNG Airlines“ užsakomasis krovininis orlaivis Airbus A-300, kuriuo buvo eksportuojami kroviniai iš Šiaulių į Turkiją. „MNG Airlines“ yra krovininių oro linijų bendrovė, įsikūrusi Stambule. Bendrovė atlieka reguliarius ir užsakomuosius skrydžius Artimuosiuose bei Tolimuosius Rytuose, JAV bei Europoje.

Šiandien

Sekmadienis, 21 Spalis 2018

Orų prognozė aviacijai

[source: ADDS]
METAR
EYSA 210850Z 23004KT 9999 FEW001 08/08 Q1027 BLU NOSIG =
TAF EYSA 210828Z 2109/2118 25006KT 7000 SCT002 TEMPO 2109/2111 BKN003 BECMG 2112/2113 BKN020
TAF
TAF EYSA 210828Z 2109/2118 25006KT 7000 SCT002 TEMPO 2109/2111 BKN003 BECMG 2112/2113 BKN020 =
SR / SS: 05:10 / 15:15 UTC (EYSA 2018-10-21)

Paieška

Lankytojai

Mes turime 14 svečius online

tic logo lt